Terminal Aerodrome Forecast
Issued by NWS

Home | Current Version | Previous Version | Graphics & Text | Print | Product List | Glossary On
Versions: 1 2 3 4 5 6 7 8 9 10 11 12 13 14 15 16 17 18
000
FTUS43 KGRB 252300
TAFCWA
TAF
KCWA 252336Z 2600/2624 23007G13KT P6SM SCT200
     FM260200 26005KT P6SM SCT200
     FM260600 30005KT P6SM BKN200
     FM261600 29008G15KT P6SM BKN200
      AMD LTD TO CLD VIS AND WIND 2603/2611=

USA.gov is the U.S. government's official web portal to all federal, state and local government web resources and services.